Details From TAPA - Antigua - V C Bird Intl
To TGPY - Grenada/Bishop International
Flight Number -
Tags decoded
Created
Modified
Stats Distance 326 nm / 604 km
Max Altitude 0 ft / 0 m
Waypoints 7
Social Downloads 2
Likes 0
Share VATSIM

Download

Looking for another format? Having issues loading an existing format? Contact us
Advertisement - Login to hide

Notes

Requested: TAPA PPR DOM FOF BNE CAI TGPY

Route

TAPA PPR DOM FOF BNE CAI TGPY

ID Type Via Altitude Latitude Longitude Leg Dist Tot Dist Heading (true) Name
O TAPA APT - 0 ft / 0 m 17.13674˚ -61.79266˚ - 0 nm - Antigua - V C Bird Intl
PPR VOR - 0 ft / 0 m 16.26528˚ -61.54000˚ 54 nm 54 nm 164° / 165° POINTE A PITRE VOR-DME
DOM NDB - 0 ft / 0 m 15.55094˚ -61.29564˚ 45 nm 99 nm 162° / 162° MELVILLE HALL NDB
FOF NDB - 0 ft / 0 m 14.58908˚ -61.00131˚ 60 nm 159 nm 164° / 164° MARTINIQUE NDB
BNE NDB - 0 ft / 0 m 13.73361˚ -60.97750˚ 51 nm 211 nm 178° / 178° HEWANORRA NDB
CAI NDB - 0 ft / 0 m 12.69619˚ -61.33933˚ 65 nm 276 nm 199° / 199° CANOUAN NDB
O TGPY APT - 0 ft / 0 m 12.00425˚ -61.78619˚ 49 nm 326 nm 212° / 212° Grenada/Bishop International

Altitude Profile

Advertisement - Login to hide

Weather


0- 5 10 15 20 25 30 35+ Temperature / ° C

Clouds and Precipitation
Forecast for 2017-12-14 00:00 UTC. Updated 2 hours ago

Ground ~20,000 ft ~40,000 ft Winds

TAPA

Details ICAO TAPA (ANU)
Name Antigua - V C Bird Intl
Region Antigua and Barbuda
Timezone America/Antigua (UTC-4.0)
Stats Elevation 62 ft / 19 m (AMSL)
Location 17.136737° -61.792662°
Runways 1
Magnetic Variation 14.767° W

METAR

TAPA 132100Z 13005KT CAVOK 27/21 Q1015 NOSIG

Decode

TAF

TAF TAPA 131201Z 1312/1412 00000KT 9999 FEWO22

Decode

Departure Runways

ID Width Length Bearing (true) Bearing (mag) Surface Threshold Offset Overrun Length
07 148 ft / 45 m 9,022 ft / 2,750 m 58.28° 73.05° Asphalt 656 ft / 200 m 0 ft / 0 m
25 148 ft / 45 m 9,022 ft / 2,750 m 238.29° 253.06° Asphalt 0 ft / 0 m 0 ft / 0 m

TGPY

Details ICAO TGPY (GND)
Name Grenada/Bishop International
Region Grenada
Timezone America/Grenada (UTC-4.0)
Stats Elevation 41 ft / 12 m (AMSL)
Location 12.004247° -61.786192°
Runways 1
Magnetic Variation 14.799° W

METAR

TGPY 132000Z 10015KT 9999 FEW019 29/24 Q1013 NOSIG

Decode

TAF

Not found

Destination Runways

ID Width Length Bearing (true) Bearing (mag) Surface Threshold Offset Overrun Length
10 148 ft / 45 m 9,012 ft / 2,747 m 90.26° 105.06° Asphalt 0 ft / 0 m 0 ft / 0 m
28 148 ft / 45 m 9,012 ft / 2,747 m 270.26° 285.06° Asphalt 0 ft / 0 m 0 ft / 0 m